• Join FlightAware (Why Join?)
  • Login
  • US Flag 
06:26AM EDT


 

Airport Tracker/Info


-or-


 

Live Flight TrackerFlight Track Log ✈ AWE9325 ✈ 24-Apr-2013 ✈ KLAX - KPHX

Flight Track Log - Related Links

Times and Time Zones

All times are in EDT time to prevent confusion due to time zone crossing. See the AWE9325 flight status page for this flight to view local times or setup timezone preferences in your user account.

Time Position Orientation Groundspeed Altitude Reporting Facility
EDT Latitude Longitude Course Direction KTS MPH feet Rate Location/Type
07:31PM 33.9243 -118.0753 94° East  Level Estimated
07:32PM 33.9181 -117.9644 94° East  Level Estimated
07:33PM 33.9117 -117.8535 94° East  Level Estimated
07:34PM 33.9052 -117.7427 94° East  Level Estimated
07:35PM 33.8987 -117.6318 94° East  Level Estimated
07:36PM 33.8920 -117.5210 94° East  Level Estimated
07:37PM 33.8853 -117.4102 94° East  Level Estimated
07:38PM 33.8784 -117.2994 94° East  Level Estimated
07:39PM 33.8715 -117.1887 94° East  Level Estimated
07:40PM 33.8644 -117.0779 94° East  Level Estimated
07:41PM 33.8573 -116.9672 94° East  Level Estimated
07:42PM 33.8500 -116.8565 94° East  Level Estimated
07:43PM 33.8427 -116.7458 95° East  Level Estimated
07:44PM 33.8352 -116.6351 95° East  Level Estimated
07:45PM 33.8277 -116.5244 95° East  Level Estimated
07:46PM 33.8200 -116.4138 95° East  Level Estimated
07:47PM 33.8123 -116.3032 95° East  Level Estimated
07:48PM 33.8045 -116.1926 95° East  Level Estimated
07:49PM 33.7965 -116.0820 95° East  Level Estimated
07:50PM 33.7885 -115.9714 95° East  Level Estimated
07:51PM 33.7803 -115.8609 95° East  Level Estimated
07:52PM 33.7721 -115.7504 95° East  Level Estimated
07:53PM 33.7638 -115.6399 95° East  Level Estimated
07:54PM 33.7553 -115.5294 95° East  Level Estimated
07:55PM 33.7468 -115.4190 95° East  Level Estimated
07:56PM 33.7382 -115.3085 95° East  Level Estimated
07:57PM 33.7294 -115.1981 95° East  Level Estimated
07:58PM 33.7206 -115.0877 95° East  Level Estimated
07:59PM 33.7117 -114.9774 96° East  Level Estimated
08:00PM 33.7027 -114.8670 96° East  Level Estimated
08:01PM 33.6935 -114.7567 96° East  Level Estimated
08:02PM 33.6843 -114.6464 96° East  Level Estimated
08:03PM 33.6750 -114.5362 96° East  Level Estimated
08:04PM 33.6656 -114.4259 96° East  Level Estimated
08:05PM 33.6561 -114.3157 96° East  Level Estimated
08:06PM 33.6465 -114.2055 96° East  Level Estimated
08:07PM 33.6368 -114.0954 96° East  Level Estimated
08:08PM 33.6269 -113.9852 96° East  Level Estimated
08:09PM 33.6171 -113.8751 96° East  Level Estimated
08:10PM 33.6071 -113.7650 96° East  Level Estimated
08:11PM 33.5970 -113.6549 96° East  Level Estimated
08:12PM 33.5868 -113.5449 96° East  Level Estimated
08:13PM 33.5765 -113.4349 96° East  Level Estimated
08:14PM 33.5661 -113.3249 96° East  Level Estimated
08:15PM 33.5550 -113.2089 96° East  Level Estimated
08:16PM 33.5438 -113.0930 97° East  Level Estimated
08:17PM 33.5326 -112.9771 97° East  Level Estimated
08:18PM 33.5212 -112.8612 97° East  Level Estimated
08:19PM 33.5097 -112.7454 97° East  Level Estimated
08:20PM 33.4981 -112.6296 97° East  Level Estimated
08:21PM 33.4864 -112.5138 97° East  Level Estimated
08:22PM 33.4745 -112.3980 97° East  Level Estimated
08:23PM 33.4626 -112.2823 97° East  Level Estimated
08:24PM 33.4506 -112.1666 97° East  Level Estimated
08:25PM 33.4384 -112.0510 97° East  Level Estimated
08:26PM 33.4343 -112.0116 97° East  Level Estimated
08:27PM 33.4343 -112.0116 231° Southwest  Level Estimated
08:28PM 33.4343 -112.0116 231° Southwest  Level Estimated
08:29PM 33.4343 -112.0116 231° Southwest  Level Estimated
08:30PM 33.4343 -112.0116 231° Southwest  Level Estimated
08:31PM 33.4343 -112.0116 231° Southwest  Level Estimated
08:32PM 33.4343 -112.0116 231° Southwest  Level Estimated
08:33PM 33.4343 -112.0116 231° Southwest  Level Estimated
08:34PM 33.4343 -112.0116 231° Southwest  Level Estimated
08:35PM 33.4343 -112.0116 231° Southwest  Level Estimated
08:36PM 33.4343 -112.0116 231° Southwest  Level Estimated
08:37PM 33.4343 -112.0116 231° Southwest  Level Estimated